sensor_id;sensor_type;location;lat;lon;timestamp;P1;P2;P0
47711;PMS7003;57457;51.634;5.886;2023-10-09T00:01:13;26.65;22.57;14.51
47711;PMS7003;57457;51.634;5.886;2023-10-09T00:14:32;28.09;23.66;15.05
47711;PMS7003;57457;51.634;5.886;2023-10-09T00:27:52;28.81;22.68;14.51
47711;PMS7003;57457;51.634;5.886;2023-10-09T00:54:31;25.09;22.14;14.4
47711;PMS7003;57457;51.634;5.886;2023-10-09T01:07:51;25.09;22.57;14.62
47711;PMS7003;57457;51.634;5.886;2023-10-09T01:34:30;27.13;23.01;14.72
47711;PMS7003;57457;51.634;5.886;2023-10-09T01:47:50;25.45;22.57;14.51
47711;PMS7003;57457;51.634;5.886;2023-10-09T02:01:09;25.09;22.68;14.94
47711;PMS7003;57457;51.634;5.886;2023-10-09T02:14:29;24.61;21.48;13.96
47711;PMS7003;57457;51.634;5.886;2023-10-09T02:41:08;23.53;21.05;14.18
47711;PMS7003;57457;51.634;5.886;2023-10-09T02:54:28;22.33;20.83;13.96
47711;PMS7003;57457;51.634;5.886;2023-10-09T03:07:48;26.41;22.57;14.29
47711;PMS7003;57457;51.634;5.886;2023-10-09T03:21:07;25.33;21.59;13.96
47711;PMS7003;57457;51.634;5.886;2023-10-09T03:34:27;23.77;21.37;13.74
47711;PMS7003;57457;51.634;5.886;2023-10-09T03:47:46;23.17;19.96;13.53
47711;PMS7003;57457;51.634;5.886;2023-10-09T04:01:06;22.57;20.61;13.74
47711;PMS7003;57457;51.634;5.886;2023-10-09T04:27:45;24.01;20.17;13.31
47711;PMS7003;57457;51.634;5.886;2023-10-09T04:41:05;21.01;19.74;13.09
47711;PMS7003;57457;51.634;5.886;2023-10-09T04:54:25;22.21;19.63;13.09
47711;PMS7003;57457;51.634;5.886;2023-10-09T05:07:44;22.09;20.28;13.2
47711;PMS7003;57457;51.634;5.886;2023-10-09T05:21:04;22.69;20.5;13.63
47711;PMS7003;57457;51.634;5.886;2023-10-09T05:34:23;23.17;19.96;13.09
47711;PMS7003;57457;51.634;5.886;2023-10-09T06:01:03;20.05;19.52;13.2
47711;PMS7003;57457;51.634;5.886;2023-10-09T06:14:22;23.65;21.48;13.85
47711;PMS7003;57457;51.634;5.886;2023-10-09T06:27:42;24.01;21.26;13.96
47711;PMS7003;57457;51.634;5.886;2023-10-09T06:41:01;24.01;21.48;13.74
47711;PMS7003;57457;51.634;5.886;2023-10-09T06:54:21;24.01;21.05;13.63
47711;PMS7003;57457;51.634;5.886;2023-10-09T07:07:41;26.89;21.59;14.07
47711;PMS7003;57457;51.634;5.886;2023-10-09T07:21:00;26.41;20.83;13.42
47711;PMS7003;57457;51.634;5.886;2023-10-09T07:34:20;25.33;21.59;14.07
47711;PMS7003;57457;51.634;5.886;2023-10-09T08:14:19;24.97;21.37;13.96
47711;PMS7003;57457;51.634;5.886;2023-10-09T08:40:58;25.57;21.92;14.51
47711;PMS7003;57457;51.634;5.886;2023-10-09T08:54:18;25.45;21.26;13.85
47711;PMS7003;57457;51.634;5.886;2023-10-09T09:07:37;25.21;20.72;13.63
47711;PMS7003;57457;51.634;5.886;2023-10-09T09:20:57;24.25;20.94;14.18
47711;PMS7003;57457;51.634;5.886;2023-10-09T09:47:36;24.85;21.37;14.18
47711;PMS7003;57457;51.634;5.886;2023-10-09T10:14:15;24.37;21.7;14.72
47711;PMS7003;57457;51.634;5.886;2023-10-09T10:27:35;23.53;21.16;14.4
47711;PMS7003;57457;51.634;5.886;2023-10-09T10:40:55;25.81;21.7;14.62
47711;PMS7003;57457;51.634;5.886;2023-10-09T10:54:14;26.29;21.37;14.29
47711;PMS7003;57457;51.634;5.886;2023-10-09T11:07:34;22.93;20.72;13.85
47711;PMS7003;57457;51.634;5.886;2023-10-09T11:20:53;25.21;21.59;14.18
47711;PMS7003;57457;51.634;5.886;2023-10-09T11:34:13;22.21;20.61;13.85
47711;PMS7003;57457;51.634;5.886;2023-10-09T11:47:33;21.97;19.19;12.98
47711;PMS7003;57457;51.634;5.886;2023-10-09T12:00:52;18.13;16.9;11.67
47711;PMS7003;57457;51.634;5.886;2023-10-09T12:14:12;14.77;15.92;10.69
47711;PMS7003;57457;51.634;5.886;2023-10-09T12:27:32;13.81;14.51;9.93
47711;PMS7003;57457;51.634;5.886;2023-10-09T13:20:50;11.89;13.96;8.51
47711;PMS7003;57457;51.634;5.886;2023-10-09T13:34:10;12.37;12.22;8.08
47711;PMS7003;57457;51.634;5.886;2023-10-09T13:47:29;13.57;13.09;8.08
47711;PMS7003;57457;51.634;5.886;2023-10-09T14:00:49;8.53;10.58;6.77
47711;PMS7003;57457;51.634;5.886;2023-10-09T14:14:09;10.33;10.36;6.66
47711;PMS7003;57457;51.634;5.886;2023-10-09T14:27:28;12.25;11.45;6.99
47711;PMS7003;57457;51.634;5.886;2023-10-09T14:40:48;7.57;9.93;6.11
47711;PMS7003;57457;51.634;5.886;2023-10-09T14:54:07;7.81;10.15;6.99
47711;PMS7003;57457;51.634;5.886;2023-10-09T15:07:27;8.29;10.36;6.99
47711;PMS7003;57457;51.634;5.886;2023-10-09T15:34:06;7.93;10.36;6.88
47711;PMS7003;57457;51.634;5.886;2023-10-09T15:47:26;8.65;10.26;6.55
47711;PMS7003;57457;51.634;5.886;2023-10-09T16:00:46;9.25;10.8;7.2
47711;PMS7003;57457;51.634;5.886;2023-10-09T16:14:05;8.05;10.58;7.2
47711;PMS7003;57457;51.634;5.886;2023-10-09T16:27:25;12.97;10.04;6.55
47711;PMS7003;57457;51.634;5.886;2023-10-09T16:40:44;12.37;11.67;7.64
47711;PMS7003;57457;51.634;5.886;2023-10-09T16:54:04;9.97;12.11;7.86
47711;PMS7003;57457;51.634;5.886;2023-10-09T17:20:43;12.61;11.78;7.64
47711;PMS7003;57457;51.634;5.886;2023-10-09T17:34:03;11.65;13.42;8.4
47711;PMS7003;57457;51.634;5.886;2023-10-09T17:47:23;10.57;12.11;7.97
47711;PMS7003;57457;51.634;5.886;2023-10-09T18:00:42;12.01;11.24;6.77
47711;PMS7003;57457;51.634;5.886;2023-10-09T18:27:21;14.17;12.44;7.97
47711;PMS7003;57457;51.634;5.886;2023-10-09T18:40:41;12.97;13.53;9.17
47711;PMS7003;57457;51.634;5.886;2023-10-09T18:54:01;11.53;13.09;8.73
47711;PMS7003;57457;51.634;5.886;2023-10-09T19:07:20;14.05;13.63;8.73
47711;PMS7003;57457;51.634;5.886;2023-10-09T19:20:40;15.73;13.85;9.6
47711;PMS7003;57457;51.634;5.886;2023-10-09T19:34:00;15.49;15.38;10.8
47711;PMS7003;57457;51.634;5.886;2023-10-09T19:47:19;19.21;17.45;11.78
47711;PMS7003;57457;51.634;5.886;2023-10-09T20:00:39;20.17;17.78;12.11
47711;PMS7003;57457;51.634;5.886;2023-10-09T20:13:58;20.17;18.21;12.11
47711;PMS7003;57457;51.634;5.886;2023-10-09T20:27:18;22.45;19.08;12.76
47711;PMS7003;57457;51.634;5.886;2023-10-09T20:40:38;22.81;19.52;13.09
47711;PMS7003;57457;51.634;5.886;2023-10-09T20:53:57;21.37;18.43;12.65
47711;PMS7003;57457;51.634;5.886;2023-10-09T21:07:17;23.05;18.54;12.44
47711;PMS7003;57457;51.634;5.886;2023-10-09T21:20:37;21.25;18.98;12.76
47711;PMS7003;57457;51.634;5.886;2023-10-09T21:33:56;22.69;19.19;12.98
47711;PMS7003;57457;51.634;5.886;2023-10-09T21:47:16;23.53;19.08;12.87
47711;PMS7003;57457;51.634;5.886;2023-10-09T22:00:35;19.45;18.76;12.98
47711;PMS7003;57457;51.634;5.886;2023-10-09T22:13:55;23.53;19.85;13.31
47711;PMS7003;57457;51.634;5.886;2023-10-09T22:27:15;24.25;21.48;14.51
47711;PMS7003;57457;51.634;5.886;2023-10-09T22:40:34;23.05;21.05;14.18
47711;PMS7003;57457;51.634;5.886;2023-10-09T22:53:54;26.41;22.35;14.94
47711;PMS7003;57457;51.634;5.886;2023-10-09T23:07:13;25.93;22.35;15.16
47711;PMS7003;57457;51.634;5.886;2023-10-09T23:20:33;26.53;23.34;15.71
47711;PMS7003;57457;51.634;5.886;2023-10-09T23:47:12;29.05;25.08;16.36
